KBOS/BOS METAR and TAF weather

Enter ICAO airport designator
Station Type Date Time Source
KBOS METAR 2020/01/20 15:54 UTC NOAA

KBOS 201554Z 31012KT 10SM FEW040 FEW080 M04/M15 A3018 RMK AO2 SLP220 T10441150 $


Station Type Date Time Source
KBOS Decoded METAR 2020/01/20 15:54 UTC NOAA

BOSTON LOGAN INTERNATIONAL, MA, United States (KBOS) 42-22N 071-01W 54M
Jan 20, 2020 - 10:54 AM EST / 2020.01.20 1554 UTC
Wind: from the NW (310 degrees) at 14 MPH (12 KT):0
Visibility: 10 mile(s):0
Sky conditions: mostly clear
Temperature: 24.1 F (-4.4 C)
Windchill: 12 F (-11 C):1
Dew Point: 5.0 F (-15.0 C)
Relative Humidity: 43%
Pressure (altimeter): 30.18 in. Hg (1022 hPa)
ob: KBOS 201554Z 31012KT 10SM FEW040 FEW080 M04/M15 A3018 RMK AO2 SLP220 T10441150
cycle: 16

Station Type Date Time Source
KBOS TAF 2020/01/20 15:18 UTC NOAA

TAF
AMD KBOS 201514Z 2015/2118 32012G20KT P6SM BKN080
FM201800 32012G20KT P6SM FEW080
FM202200 31010G19KT P6SM SKC
FM210000 30010KT P6SM SKC
FM211600 32010KT P6SM FEW250

Example: see airport list